Baggs, Wyoming
Current Conditions -  °F | °C
As of 2:55 AM on Sunday 21 Dec 2014 (Local Time) from KDWX Reporting Station
Overcast Overcast  
Wind Chill: 20°   Ceiling: 5500
Heat Index: 32°   Visibility: 10mi
Dew Point: 27°   Wind: 18mph
Humidity: 83%   Direction: 200°SSW
Pressure: 29.96"   Gusts: 26mph
Location:  41.04°N, 107.66°W
Report Text: KDWX 210955Z AUTO 20016G23KT 10SM SCT043 OVC055 00/M03 A2996 RMK AO2 T10011027
Loading
Personal Weather Stations






























Interactive Weather Map New forecast layout! Learn more

10-Day Weather Forecast

Advertisements
Track Severe Weather on mobile